createdAt,value
2022-08-16T00:00:22.683Z,62.5
2022-08-16T00:01:20.386Z,62.8
2022-08-16T00:02:20.361Z,62.8
2022-08-16T00:03:20.330Z,62.9
2022-08-16T00:04:20.343Z,63
2022-08-16T00:05:20.355Z,63
2022-08-16T00:06:20.332Z,63.1
2022-08-16T00:07:20.331Z,63
2022-08-16T00:08:35.937Z,63.2
2022-08-16T00:09:20.331Z,63.3
2022-08-16T00:10:20.340Z,63.2
2022-08-16T00:11:20.328Z,63
2022-08-16T00:12:20.336Z,62.9
2022-08-16T00:13:20.332Z,62.9
2022-08-16T00:14:20.348Z,63.2
2022-08-16T00:15:20.336Z,63.1
2022-08-16T00:17:05.459Z,63.2
2022-08-16T00:17:20.338Z,63.2
2022-08-16T00:18:22.116Z,63.1
2022-08-16T00:19:20.618Z,63.2
2022-08-16T00:20:21.010Z,63.3
2022-08-16T00:21:20.337Z,63.2
2022-08-16T00:22:20.805Z,63.2
2022-08-16T00:23:34.534Z,63.7
2022-08-16T00:24:30.957Z,63.9
2022-08-16T00:25:20.350Z,63.7
2022-08-16T00:26:35.447Z,63.8
2022-08-16T00:27:20.338Z,63.7
2022-08-16T00:28:20.332Z,63.6
2022-08-16T00:29:20.334Z,63.9
2022-08-16T00:30:28.838Z,63.7
2022-08-16T00:31:24.304Z,63.9
2022-08-16T00:32:20.330Z,64
2022-08-16T00:33:20.337Z,64.2
2022-08-16T00:34:20.337Z,64.3
2022-08-16T00:35:20.342Z,64.6
2022-08-16T00:36:20.367Z,64.3
2022-08-16T00:37:20.735Z,64.5
2022-08-16T00:39:20.336Z,65
2022-08-16T00:40:34.550Z,64.8
2022-08-16T00:41:20.336Z,64.6
2022-08-16T00:42:30.637Z,65
2022-08-16T00:43:20.342Z,65
2022-08-16T00:44:20.345Z,64.8
2022-08-16T00:45:20.338Z,64.7
2022-08-16T00:46:33.006Z,64.9
2022-08-16T00:47:20.346Z,64.7
2022-08-16T00:48:31.154Z,64.9
2022-08-16T00:49:20.339Z,65
2022-08-16T00:50:20.390Z,65
2022-08-16T00:51:20.350Z,64.9
2022-08-16T00:52:30.618Z,65
2022-08-16T00:53:20.352Z,65
2022-08-16T00:54:21.642Z,65.2
2022-08-16T00:55:20.347Z,65
2022-08-16T00:56:57.988Z,64.7
2022-08-16T00:57:20.369Z,64.8
2022-08-16T00:58:35.056Z,64.9
2022-08-16T00:59:20.347Z,65
2022-08-16T01:00:23.809Z,65.2
2022-08-16T01:01:20.377Z,65.3
2022-08-16T01:02:30.417Z,65.6
2022-08-16T01:03:20.346Z,65.4
2022-08-16T01:04:29.218Z,65.3
2022-08-16T01:05:24.003Z,65.1
2022-08-16T01:06:39.752Z,65.6
2022-08-16T01:07:20.350Z,65.5
2022-08-16T01:08:35.080Z,65.7
2022-08-16T01:09:20.347Z,65.4
2022-08-16T01:10:20.360Z,65.7
2022-08-16T01:11:20.352Z,65.4
2022-08-16T01:12:26.230Z,65.6
2022-08-16T01:13:20.349Z,65.4
2022-08-16T01:14:20.390Z,65.4
2022-08-16T01:15:20.355Z,65.5
2022-08-16T01:16:20.350Z,65.4
2022-08-16T01:17:20.353Z,65.4
2022-08-16T01:18:39.014Z,65.1
2022-08-16T01:19:20.347Z,65.4
2022-08-16T01:20:23.659Z,65.4
2022-08-16T01:21:22.486Z,65.4
2022-08-16T01:22:48.372Z,65.3
2022-08-16T01:23:20.361Z,65.5
2022-08-16T01:24:52.337Z,65.6
2022-08-16T01:25:21.670Z,65.7
2022-08-16T01:26:34.478Z,65.5
2022-08-16T01:27:20.357Z,65.4
2022-08-16T01:28:20.507Z,65.4
2022-08-16T01:29:20.360Z,65.5
2022-08-16T01:30:21.882Z,65.6
2022-08-16T01:31:20.358Z,65.6
2022-08-16T01:32:33.167Z,65.6
2022-08-16T01:33:20.375Z,65.9
2022-08-16T01:34:24.891Z,65.9
2022-08-16T01:35:20.357Z,65.8
2022-08-16T01:36:20.353Z,65.8
2022-08-16T01:37:20.357Z,65.8
2022-08-16T01:38:20.363Z,65.7
2022-08-16T01:39:20.354Z,65.6
2022-08-16T01:40:20.376Z,65.6
2022-08-16T01:41:21.129Z,65.9
2022-08-16T01:42:20.390Z,65.9
2022-08-16T01:43:20.351Z,65.9
2022-08-16T01:44:20.356Z,65.9
2022-08-16T01:45:20.366Z,65.9
2022-08-16T01:46:37.457Z,65.9
2022-08-16T01:47:20.360Z,66
2022-08-16T01:48:20.699Z,65.9
2022-08-16T01:49:20.358Z,65.8
2022-08-16T01:50:42.898Z,65.9
2022-08-16T01:51:20.367Z,65.7
2022-08-16T01:52:28.038Z,65.8
2022-08-16T01:53:20.359Z,65.7
2022-08-16T01:54:30.899Z,65.8
2022-08-16T01:55:20.362Z,66.2
2022-08-16T01:56:23.709Z,66.2
2022-08-16T01:57:22.668Z,66.1
2022-08-16T01:58:20.976Z,66.2
2022-08-16T01:59:20.368Z,66.2
2022-08-16T02:00:20.368Z,66.4
2022-08-16T02:01:20.390Z,66.3
2022-08-16T02:02:26.877Z,66.3
2022-08-16T02:03:24.466Z,66.5
2022-08-16T02:04:49.149Z,66.8
2022-08-16T02:05:20.371Z,66.9
2022-08-16T02:06:33.681Z,66.5
2022-08-16T02:07:23.608Z,66.2
2022-08-16T02:08:33.401Z,66.7
2022-08-16T02:09:20.363Z,66.7
2022-08-16T02:10:20.368Z,66.7
2022-08-16T02:11:20.370Z,66.8
2022-08-16T02:12:50.735Z,66.7
2022-08-16T02:13:20.357Z,66.7
2022-08-16T02:14:21.359Z,66.6
2022-08-16T02:15:24.841Z,67
2022-08-16T02:16:20.372Z,67
2022-08-16T02:17:20.379Z,67.3
2022-08-16T02:18:20.365Z,67
2022-08-16T02:19:21.334Z,67
2022-08-16T02:20:26.423Z,67.1
2022-08-16T02:21:31.077Z,67.2
2022-08-16T02:22:34.252Z,67
2022-08-16T02:23:20.376Z,67.5
2022-08-16T02:24:32.125Z,67.5
2022-08-16T02:25:20.369Z,67.4
2022-08-16T02:26:20.375Z,67.4
2022-08-16T02:27:20.368Z,67.5
2022-08-16T02:28:20.377Z,67.9
2022-08-16T02:29:20.437Z,67.9
2022-08-16T02:30:36.747Z,67.9
2022-08-16T02:31:20.377Z,67.5
2022-08-16T02:32:49.334Z,67.5
2022-08-16T02:33:20.379Z,67.3
2022-08-16T02:35:23.160Z,67.4
2022-08-16T02:36:47.103Z,67.5
2022-08-16T02:37:20.919Z,67.4
2022-08-16T02:38:20.364Z,67.7
2022-08-16T02:39:22.965Z,67.8
2022-08-16T02:40:20.374Z,67.6
2022-08-16T02:41:20.376Z,67.6
2022-08-16T02:42:20.369Z,67.4
2022-08-16T02:43:20.375Z,67.5
2022-08-16T02:44:20.378Z,67.5
2022-08-16T02:45:20.383Z,67.3
2022-08-16T02:46:20.397Z,67.4
2022-08-16T02:47:24.921Z,67.3
2022-08-16T02:48:29.023Z,67.4
2022-08-16T02:49:20.470Z,67.3
2022-08-16T02:50:55.427Z,67.6
2022-08-16T02:51:23.501Z,67.5
2022-08-16T02:52:24.776Z,67.9
2022-08-16T02:53:23.357Z,67.6
2022-08-16T02:54:20.392Z,67.7
2022-08-16T02:55:40.906Z,67.7
2022-08-16T02:56:20.377Z,67.6
2022-08-16T02:57:20.378Z,67.9
2022-08-16T02:58:20.378Z,67.9
2022-08-16T02:59:20.378Z,67.8
2022-08-16T03:00:33.890Z,67.8
2022-08-16T03:01:25.354Z,67.7
2022-08-16T03:02:20.376Z,67.7
2022-08-16T03:03:20.427Z,67.5
2022-08-16T03:04:39.165Z,67.4
2022-08-16T03:05:20.384Z,67.4
2022-08-16T03:06:36.389Z,67.4
2022-08-16T03:07:27.399Z,67.6
2022-08-16T03:08:52.404Z,67.6
2022-08-16T03:09:20.388Z,67.9
2022-08-16T03:10:20.399Z,67.8
2022-08-16T03:11:21.828Z,68.1
2022-08-16T03:13:20.387Z,68.5
2022-08-16T03:14:21.107Z,68.9
2022-08-16T03:15:20.388Z,68.8
2022-08-16T03:16:38.434Z,69.1
2022-08-16T03:17:20.379Z,69.1
2022-08-16T03:18:34.589Z,68.8
2022-08-16T03:19:20.381Z,69
2022-08-16T03:20:20.387Z,69.1
2022-08-16T03:21:20.394Z,68.9
2022-08-16T03:22:29.208Z,69.3
2022-08-16T03:23:20.394Z,69.9
2022-08-16T03:24:28.533Z,69.8
2022-08-16T03:25:20.390Z,69.5
2022-08-16T03:26:20.391Z,69.8
2022-08-16T03:27:20.394Z,69.6
2022-08-16T03:28:20.411Z,69.6
2022-08-16T03:29:20.410Z,69.4
2022-08-16T03:30:20.391Z,69.2
2022-08-16T03:31:20.388Z,69.4
2022-08-16T03:32:20.397Z,69.2
2022-08-16T03:33:20.395Z,68.9
2022-08-16T03:34:20.398Z,68.9
2022-08-16T03:35:20.403Z,68.9
2022-08-16T03:36:31.278Z,69.3
2022-08-16T03:37:20.400Z,69.3
2022-08-16T03:38:32.935Z,69.2
2022-08-16T03:39:20.669Z,69
2022-08-16T03:40:31.512Z,69.2
2022-08-16T03:41:25.113Z,69
2022-08-16T03:42:23.174Z,69.2
2022-08-16T03:43:21.686Z,69
2022-08-16T03:44:43.826Z,69
2022-08-16T03:45:20.392Z,69
2022-08-16T03:46:45.153Z,68.8
2022-08-16T03:47:20.395Z,68.6
2022-08-16T03:48:20.398Z,68.9
2022-08-16T03:49:20.398Z,69
2022-08-16T03:50:25.337Z,68.7
2022-08-16T03:51:23.595Z,68.7
2022-08-16T03:52:20.616Z,68.7
2022-08-16T03:53:20.394Z,68.5
2022-08-16T03:55:20.394Z,68.6
2022-08-16T03:56:20.833Z,68.7
2022-08-16T03:57:20.415Z,68.4
2022-08-16T03:58:20.400Z,68.4
2022-08-16T03:59:20.413Z,68.5
2022-08-16T04:00:40.299Z,68.5
2022-08-16T04:01:20.492Z,68.4
2022-08-16T04:02:22.319Z,68.4
2022-08-16T04:03:20.397Z,68.6
2022-08-16T04:04:32.440Z,68.7
2022-08-16T04:05:20.404Z,68.7
2022-08-16T04:07:20.401Z,69
2022-08-16T04:08:22.927Z,69.4
2022-08-16T04:09:20.403Z,69.3
2022-08-16T04:10:36.783Z,69.2
2022-08-16T04:11:20.401Z,69.2
2022-08-16T04:12:54.314Z,69.4
2022-08-16T04:14:00.655Z,69.2
2022-08-16T04:14:32.875Z,69.4
2022-08-16T04:15:20.406Z,69.3
2022-08-16T04:16:27.701Z,69.4
2022-08-16T04:17:20.409Z,69.3
2022-08-16T04:18:20.405Z,69.4
2022-08-16T04:19:20.438Z,69.6
2022-08-16T04:20:29.475Z,69.8
2022-08-16T04:21:29.446Z,69.8
2022-08-16T04:22:20.421Z,69.9
2022-08-16T04:23:20.406Z,69.9
2022-08-16T04:24:20.434Z,69.7
2022-08-16T04:25:20.412Z,69.6
2022-08-16T04:26:20.436Z,69.6
2022-08-16T04:27:20.416Z,69.4
2022-08-16T04:28:29.007Z,69.5
2022-08-16T04:29:24.532Z,69.6
2022-08-16T04:30:34.885Z,69.4
2022-08-16T04:31:20.414Z,69.2
2022-08-16T04:32:20.410Z,69.2
2022-08-16T04:34:20.409Z,69.1
2022-08-16T04:35:20.409Z,69
2022-08-16T04:36:20.613Z,68.8
2022-08-16T04:37:20.425Z,68.9
2022-08-16T04:38:21.274Z,68.8
2022-08-16T04:39:20.422Z,68.9
2022-08-16T04:40:21.474Z,69.2
2022-08-16T04:41:20.417Z,69.2
2022-08-16T04:42:26.125Z,69.2
2022-08-16T04:43:20.415Z,69.3
2022-08-16T04:44:52.688Z,69.1
2022-08-16T04:45:36.084Z,69.3
2022-08-16T04:47:02.408Z,69.4
2022-08-16T04:47:21.603Z,69.4
2022-08-16T04:50:20.413Z,69.3
2022-08-16T04:51:20.416Z,69.5
2022-08-16T04:54:20.411Z,69.5
2022-08-16T04:55:20.423Z,69.7
